sensor_id;sensor_type;location;lat;lon;timestamp;temperature;humidity
25248;DHT22;13191;47.472;11.214;2024-03-23T00:55:52;7.10;99.90
25248;DHT22;13191;47.472;11.214;2024-03-23T00:58:18;7.00;99.90
25248;DHT22;13191;47.472;11.214;2024-03-23T01:00:43;6.70;99.90
25248;DHT22;13191;47.472;11.214;2024-03-23T01:03:09;6.60;99.90
25248;DHT22;13191;47.472;11.214;2024-03-23T01:05:35;6.60;99.90
25248;DHT22;13191;47.472;11.214;2024-03-23T01:08:00;6.80;99.90
25248;DHT22;13191;47.472;11.214;2024-03-23T01:10:26;6.80;99.90
25248;DHT22;13191;47.472;11.214;2024-03-23T01:12:51;6.70;99.90
25248;DHT22;13191;47.472;11.214;2024-03-23T01:15:17;6.80;99.90
25248;DHT22;13191;47.472;11.214;2024-03-23T01:17:42;6.80;99.90
25248;DHT22;13191;47.472;11.214;2024-03-23T01:20:08;6.80;99.90
25248;DHT22;13191;47.472;11.214;2024-03-23T01:22:33;6.80;99.90
25248;DHT22;13191;47.472;11.214;2024-03-23T01:24:59;6.60;99.90
25248;DHT22;13191;47.472;11.214;2024-03-23T01:27:24;6.40;99.90
25248;DHT22;13191;47.472;11.214;2024-03-23T01:29:50;6.40;99.90
25248;DHT22;13191;47.472;11.214;2024-03-23T01:32:18;6.40;99.90
25248;DHT22;13191;47.472;11.214;2024-03-23T01:34:44;6.40;99.90
25248;DHT22;13191;47.472;11.214;2024-03-23T01:37:09;6.40;99.90
25248;DHT22;13191;47.472;11.214;2024-03-23T01:39:35;6.40;99.90
25248;DHT22;13191;47.472;11.214;2024-03-23T01:42:00;6.40;99.90
25248;DHT22;13191;47.472;11.214;2024-03-23T01:44:26;6.30;99.90
25248;DHT22;13191;47.472;11.214;2024-03-23T01:46:51;6.40;99.90
25248;DHT22;13191;47.472;11.214;2024-03-23T01:49:17;6.40;99.90
25248;DHT22;13191;47.472;11.214;2024-03-23T01:51:43;6.40;99.90
25248;DHT22;13191;47.472;11.214;2024-03-23T01:54:10;6.40;99.90
25248;DHT22;13191;47.472;11.214;2024-03-23T01:56:35;6.40;99.90
25248;DHT22;13191;47.472;11.214;2024-03-23T01:59:05;6.30;99.90
25248;DHT22;13191;47.472;11.214;2024-03-23T02:01:31;6.30;99.90
25248;DHT22;13191;47.472;11.214;2024-03-23T02:03:57;6.40;99.90
25248;DHT22;13191;47.472;11.214;2024-03-23T02:06:24;6.40;99.90
25248;DHT22;13191;47.472;11.214;2024-03-23T02:08:50;6.40;99.90
25248;DHT22;13191;47.472;11.214;2024-03-23T02:11:15;6.40;99.90
25248;DHT22;13191;47.472;11.214;2024-03-23T02:13:41;6.40;99.90
25248;DHT22;13191;47.472;11.214;2024-03-23T02:16:06;6.40;99.90
25248;DHT22;13191;47.472;11.214;2024-03-23T02:18:35;6.20;99.90
25248;DHT22;13191;47.472;11.214;2024-03-23T02:21:01;6.20;99.90
25248;DHT22;13191;47.472;11.214;2024-03-23T02:23:27;6.30;99.90
25248;DHT22;13191;47.472;11.214;2024-03-23T02:25:52;6.30;99.90
25248;DHT22;13191;47.472;11.214;2024-03-23T02:28:20;6.30;99.90
25248;DHT22;13191;47.472;11.214;2024-03-23T02:30:50;6.20;99.90
25248;DHT22;13191;47.472;11.214;2024-03-23T02:33:16;6.20;99.90
25248;DHT22;13191;47.472;11.214;2024-03-23T02:35:43;6.30;99.90
25248;DHT22;13191;47.472;11.214;2024-03-23T02:38:08;6.20;99.90
25248;DHT22;13191;47.472;11.214;2024-03-23T02:40:34;6.00;99.90
25248;DHT22;13191;47.472;11.214;2024-03-23T02:43:00;5.90;99.90
25248;DHT22;13191;47.472;11.214;2024-03-23T02:45:25;5.70;99.90
25248;DHT22;13191;47.472;11.214;2024-03-23T02:47:51;5.70;99.90
25248;DHT22;13191;47.472;11.214;2024-03-23T02:50:20;5.80;99.90
25248;DHT22;13191;47.472;11.214;2024-03-23T02:52:46;5.70;99.90
25248;DHT22;13191;47.472;11.214;2024-03-23T02:55:12;5.70;99.90
25248;DHT22;13191;47.472;11.214;2024-03-23T02:57:38;5.40;99.90
25248;DHT22;13191;47.472;11.214;2024-03-23T03:00:04;5.50;99.90
25248;DHT22;13191;47.472;11.214;2024-03-23T03:02:30;5.40;99.90
25248;DHT22;13191;47.472;11.214;2024-03-23T03:04:56;5.50;99.90
25248;DHT22;13191;47.472;11.214;2024-03-23T03:07:21;5.60;99.90
25248;DHT22;13191;47.472;11.214;2024-03-23T03:09:47;5.70;99.90
25248;DHT22;13191;47.472;11.214;2024-03-23T03:12:12;5.70;99.90
25248;DHT22;13191;47.472;11.214;2024-03-23T03:14:38;5.70;99.90
25248;DHT22;13191;47.472;11.214;2024-03-23T03:17:03;5.70;99.90
25248;DHT22;13191;47.472;11.214;2024-03-23T03:19:30;5.40;99.90
25248;DHT22;13191;47.472;11.214;2024-03-23T03:21:55;5.50;99.90
25248;DHT22;13191;47.472;11.214;2024-03-23T03:24:21;5.50;99.90
25248;DHT22;13191;47.472;11.214;2024-03-23T03:26:47;5.60;99.90
25248;DHT22;13191;47.472;11.214;2024-03-23T03:29:12;5.60;99.90
25248;DHT22;13191;47.472;11.214;2024-03-23T03:31:39;5.60;99.90
25248;DHT22;13191;47.472;11.214;2024-03-23T03:34:04;5.60;99.90
25248;DHT22;13191;47.472;11.214;2024-03-23T03:36:30;5.60;99.90
25248;DHT22;13191;47.472;11.214;2024-03-23T03:38:56;5.50;99.90
25248;DHT22;13191;47.472;11.214;2024-03-23T03:41:21;5.60;99.90
25248;DHT22;13191;47.472;11.214;2024-03-23T03:43:47;5.60;99.90
25248;DHT22;13191;47.472;11.214;2024-03-23T03:46:12;5.50;99.90
25248;DHT22;13191;47.472;11.214;2024-03-23T03:48:38;5.50;99.90
25248;DHT22;13191;47.472;11.214;2024-03-23T03:51:04;5.50;99.90
25248;DHT22;13191;47.472;11.214;2024-03-23T03:53:29;5.20;99.90
25248;DHT22;13191;47.472;11.214;2024-03-23T03:55:56;5.20;99.90
25248;DHT22;13191;47.472;11.214;2024-03-23T03:58:21;5.30;99.90
25248;DHT22;13191;47.472;11.214;2024-03-23T04:00:47;5.30;99.90
25248;DHT22;13191;47.472;11.214;2024-03-23T04:03:12;5.30;99.90
25248;DHT22;13191;47.472;11.214;2024-03-23T04:05:38;5.30;99.90
25248;DHT22;13191;47.472;11.214;2024-03-23T04:08:04;5.30;99.90
25248;DHT22;13191;47.472;11.214;2024-03-23T04:10:30;5.30;99.90
25248;DHT22;13191;47.472;11.214;2024-03-23T04:12:55;5.40;99.90
25248;DHT22;13191;47.472;11.214;2024-03-23T04:15:21;5.40;99.90
25248;DHT22;13191;47.472;11.214;2024-03-23T04:17:47;5.30;99.90
25248;DHT22;13191;47.472;11.214;2024-03-23T04:20:13;5.30;99.90
25248;DHT22;13191;47.472;11.214;2024-03-23T04:22:42;5.30;99.90
25248;DHT22;13191;47.472;11.214;2024-03-23T04:25:08;5.30;99.90
25248;DHT22;13191;47.472;11.214;2024-03-23T04:27:36;5.20;99.90
25248;DHT22;13191;47.472;11.214;2024-03-23T04:30:02;5.10;99.90
25248;DHT22;13191;47.472;11.214;2024-03-23T04:32:29;5.20;99.90
25248;DHT22;13191;47.472;11.214;2024-03-23T04:34:55;5.10;99.90
25248;DHT22;13191;47.472;11.214;2024-03-23T04:37:21;5.10;99.90
25248;DHT22;13191;47.472;11.214;2024-03-23T04:39:47;5.20;99.90
25248;DHT22;13191;47.472;11.214;2024-03-23T04:42:17;5.20;99.90
25248;DHT22;13191;47.472;11.214;2024-03-23T04:44:43;5.20;99.90
25248;DHT22;13191;47.472;11.214;2024-03-23T04:47:09;5.20;99.90
25248;DHT22;13191;47.472;11.214;2024-03-23T04:49:35;5.20;99.90
25248;DHT22;13191;47.472;11.214;2024-03-23T04:52:03;5.20;99.90
25248;DHT22;13191;47.472;11.214;2024-03-23T04:54:29;5.20;99.90
25248;DHT22;13191;47.472;11.214;2024-03-23T04:56:54;5.20;99.90
25248;DHT22;13191;47.472;11.214;2024-03-23T04:59:20;5.20;99.90
25248;DHT22;13191;47.472;11.214;2024-03-23T05:01:45;5.10;99.90
25248;DHT22;13191;47.472;11.214;2024-03-23T05:04:11;5.00;99.90
25248;DHT22;13191;47.472;11.214;2024-03-23T05:06:36;5.10;99.90
25248;DHT22;13191;47.472;11.214;2024-03-23T05:09:02;5.10;99.90
25248;DHT22;13191;47.472;11.214;2024-03-23T05:11:31;5.10;99.90
25248;DHT22;13191;47.472;11.214;2024-03-23T05:13:57;5.10;99.90
25248;DHT22;13191;47.472;11.214;2024-03-23T05:16:23;4.70;99.90
25248;DHT22;13191;47.472;11.214;2024-03-23T05:18:48;4.80;99.90
25248;DHT22;13191;47.472;11.214;2024-03-23T05:21:14;4.90;99.90
25248;DHT22;13191;47.472;11.214;2024-03-23T05:23:39;4.90;99.90
25248;DHT22;13191;47.472;11.214;2024-03-23T05:26:05;4.90;99.90
25248;DHT22;13191;47.472;11.214;2024-03-23T05:28:31;4.80;99.90
25248;DHT22;13191;47.472;11.214;2024-03-23T05:30:56;4.80;99.90
25248;DHT22;13191;47.472;11.214;2024-03-23T05:33:22;4.90;99.90
25248;DHT22;13191;47.472;11.214;2024-03-23T05:36:01;4.90;99.90
25248;DHT22;13191;47.472;11.214;2024-03-23T05:38:26;5.00;99.90
25248;DHT22;13191;47.472;11.214;2024-03-23T05:41:00;5.00;99.90
25248;DHT22;13191;47.472;11.214;2024-03-23T05:43:26;4.80;99.90
25248;DHT22;13191;47.472;11.214;2024-03-23T05:45:55;4.90;99.90
25248;DHT22;13191;47.472;11.214;2024-03-23T05:48:22;4.90;99.90
25248;DHT22;13191;47.472;11.214;2024-03-23T05:50:48;4.90;99.90
25248;DHT22;13191;47.472;11.214;2024-03-23T05:53:18;4.90;99.90
25248;DHT22;13191;47.472;11.214;2024-03-23T05:55:44;4.70;99.90
25248;DHT22;13191;47.472;11.214;2024-03-23T05:58:10;4.90;99.90
25248;DHT22;13191;47.472;11.214;2024-03-23T06:00:36;5.00;99.90
25248;DHT22;13191;47.472;11.214;2024-03-23T06:03:01;5.00;99.90
25248;DHT22;13191;47.472;11.214;2024-03-23T06:05:27;4.90;99.90
25248;DHT22;13191;47.472;11.214;2024-03-23T06:07:53;4.90;99.90
25248;DHT22;13191;47.472;11.214;2024-03-23T06:10:18;4.90;99.90
25248;DHT22;13191;47.472;11.214;2024-03-23T06:12:46;5.00;99.90
25248;DHT22;13191;47.472;11.214;2024-03-23T06:15:11;5.10;99.90
25248;DHT22;13191;47.472;11.214;2024-03-23T06:17:38;5.20;99.90
25248;DHT22;13191;47.472;11.214;2024-03-23T06:20:04;5.30;99.90
25248;DHT22;13191;47.472;11.214;2024-03-23T06:22:32;5.30;99.90
25248;DHT22;13191;47.472;11.214;2024-03-23T06:24:57;5.10;99.90
25248;DHT22;13191;47.472;11.214;2024-03-23T06:27:23;5.30;99.90
25248;DHT22;13191;47.472;11.214;2024-03-23T06:29:48;5.40;99.90
25248;DHT22;13191;47.472;11.214;2024-03-23T06:32:14;5.30;99.90
25248;DHT22;13191;47.472;11.214;2024-03-23T06:34:42;5.40;99.90
25248;DHT22;13191;47.472;11.214;2024-03-23T06:37:08;5.50;99.90
25248;DHT22;13191;47.472;11.214;2024-03-23T06:39:35;5.60;99.90
25248;DHT22;13191;47.472;11.214;2024-03-23T06:42:02;5.60;99.90
25248;DHT22;13191;47.472;11.214;2024-03-23T06:44:27;5.70;99.90
25248;DHT22;13191;47.472;11.214;2024-03-23T06:46:53;5.70;99.90
25248;DHT22;13191;47.472;11.214;2024-03-23T06:49:19;5.80;99.90
25248;DHT22;13191;47.472;11.214;2024-03-23T06:51:45;5.80;99.90
25248;DHT22;13191;47.472;11.214;2024-03-23T06:54:11;6.00;99.90
25248;DHT22;13191;47.472;11.214;2024-03-23T06:56:36;6.10;99.90
25248;DHT22;13191;47.472;11.214;2024-03-23T06:59:02;6.20;99.90
25248;DHT22;13191;47.472;11.214;2024-03-23T07:01:27;6.10;99.90
25248;DHT22;13191;47.472;11.214;2024-03-23T07:03:54;6.20;99.90
25248;DHT22;13191;47.472;11.214;2024-03-23T07:06:20;6.30;99.90
25248;DHT22;13191;47.472;11.214;2024-03-23T07:08:45;6.40;99.90
25248;DHT22;13191;47.472;11.214;2024-03-23T07:11:11;6.50;99.90
25248;DHT22;13191;47.472;11.214;2024-03-23T07:13:36;6.60;99.90
25248;DHT22;13191;47.472;11.214;2024-03-23T07:16:02;6.70;99.90
25248;DHT22;13191;47.472;11.214;2024-03-23T07:18:28;6.80;99.90
25248;DHT22;13191;47.472;11.214;2024-03-23T07:20:54;6.90;99.90
25248;DHT22;13191;47.472;11.214;2024-03-23T07:23:22;7.10;99.90
25248;DHT22;13191;47.472;11.214;2024-03-23T07:26:01;7.20;99.90
25248;DHT22;13191;47.472;11.214;2024-03-23T07:28:27;7.30;99.90
25248;DHT22;13191;47.472;11.214;2024-03-23T07:33:29;7.60;99.90
25248;DHT22;13191;47.472;11.214;2024-03-23T07:35:55;7.60;99.90
25248;DHT22;13191;47.472;11.214;2024-03-23T07:38:21;7.80;99.90
25248;DHT22;13191;47.472;11.214;2024-03-23T07:40:46;8.00;99.90
25248;DHT22;13191;47.472;11.214;2024-03-23T07:43:12;8.10;99.90
25248;DHT22;13191;47.472;11.214;2024-03-23T07:45:37;8.30;99.90
25248;DHT22;13191;47.472;11.214;2024-03-23T07:48:04;8.40;99.90
25248;DHT22;13191;47.472;11.214;2024-03-23T07:50:29;8.50;99.90
25248;DHT22;13191;47.472;11.214;2024-03-23T07:52:55;8.70;99.90
25248;DHT22;13191;47.472;11.214;2024-03-23T07:55:20;8.80;99.90
25248;DHT22;13191;47.472;11.214;2024-03-23T07:57:46;8.90;99.90
25248;DHT22;13191;47.472;11.214;2024-03-23T08:00:12;9.00;99.90
25248;DHT22;13191;47.472;11.214;2024-03-23T08:02:38;9.20;99.90
25248;DHT22;13191;47.472;11.214;2024-03-23T08:05:04;9.40;99.90
25248;DHT22;13191;47.472;11.214;2024-03-23T08:07:30;9.50;99.90
25248;DHT22;13191;47.472;11.214;2024-03-23T08:09:55;9.60;99.90
25248;DHT22;13191;47.472;11.214;2024-03-23T08:12:21;9.80;99.90
25248;DHT22;13191;47.472;11.214;2024-03-23T08:14:46;9.90;99.90
25248;DHT22;13191;47.472;11.214;2024-03-23T08:17:12;10.00;99.90
25248;DHT22;13191;47.472;11.214;2024-03-23T08:19:37;10.10;99.90
25248;DHT22;13191;47.472;11.214;2024-03-23T08:22:03;10.20;99.90
25248;DHT22;13191;47.472;11.214;2024-03-23T08:24:28;10.30;99.90
25248;DHT22;13191;47.472;11.214;2024-03-23T08:26:55;10.40;99.90
25248;DHT22;13191;47.472;11.214;2024-03-23T08:29:21;10.50;99.90
25248;DHT22;13191;47.472;11.214;2024-03-23T08:31:46;10.60;99.90
25248;DHT22;13191;47.472;11.214;2024-03-23T08:34:12;10.60;99.90
25248;DHT22;13191;47.472;11.214;2024-03-23T08:36:37;10.70;99.90
25248;DHT22;13191;47.472;11.214;2024-03-23T08:39:03;10.80;99.90
25248;DHT22;13191;47.472;11.214;2024-03-23T08:41:28;10.90;99.90
25248;DHT22;13191;47.472;11.214;2024-03-23T08:43:55;11.00;99.90
25248;DHT22;13191;47.472;11.214;2024-03-23T08:46:21;11.00;99.90
25248;DHT22;13191;47.472;11.214;2024-03-23T08:48:47;11.00;99.90
25248;DHT22;13191;47.472;11.214;2024-03-23T08:51:15;11.10;99.90
25248;DHT22;13191;47.472;11.214;2024-03-23T08:53:42;11.20;99.90
25248;DHT22;13191;47.472;11.214;2024-03-23T08:56:08;11.30;99.90
25248;DHT22;13191;47.472;11.214;2024-03-23T08:58:34;11.30;99.90
25248;DHT22;13191;47.472;11.214;2024-03-23T09:01:06;11.30;99.90
25248;DHT22;13191;47.472;11.214;2024-03-23T09:03:32;11.30;99.90
25248;DHT22;13191;47.472;11.214;2024-03-23T09:05:59;11.30;99.90
25248;DHT22;13191;47.472;11.214;2024-03-23T09:08:25;11.40;99.90
25248;DHT22;13191;47.472;11.214;2024-03-23T09:10:51;11.40;99.90
25248;DHT22;13191;47.472;11.214;2024-03-23T09:13:17;11.40;99.90
25248;DHT22;13191;47.472;11.214;2024-03-23T09:15:47;11.30;99.90
25248;DHT22;13191;47.472;11.214;2024-03-23T09:18:13;11.20;99.90
25248;DHT22;13191;47.472;11.214;2024-03-23T09:20:39;11.30;99.90
25248;DHT22;13191;47.472;11.214;2024-03-23T09:23:05;11.30;99.90
25248;DHT22;13191;47.472;11.214;2024-03-23T09:25:30;11.40;99.90
25248;DHT22;13191;47.472;11.214;2024-03-23T09:27:56;11.40;99.90
25248;DHT22;13191;47.472;11.214;2024-03-23T09:30:21;11.40;99.90
25248;DHT22;13191;47.472;11.214;2024-03-23T09:32:47;11.40;99.90
25248;DHT22;13191;47.472;11.214;2024-03-23T09:35:13;11.50;99.90
25248;DHT22;13191;47.472;11.214;2024-03-23T09:37:39;11.50;99.90
25248;DHT22;13191;47.472;11.214;2024-03-23T09:40:10;11.50;99.90
25248;DHT22;13191;47.472;11.214;2024-03-23T09:42:37;11.50;99.90
25248;DHT22;13191;47.472;11.214;2024-03-23T09:45:05;11.40;99.90
25248;DHT22;13191;47.472;11.214;2024-03-23T09:47:33;11.40;99.90
25248;DHT22;13191;47.472;11.214;2024-03-23T09:49:59;11.30;99.90
25248;DHT22;13191;47.472;11.214;2024-03-23T09:52:25;11.40;99.90
25248;DHT22;13191;47.472;11.214;2024-03-23T09:54:50;11.10;99.90
25248;DHT22;13191;47.472;11.214;2024-03-23T09:57:16;11.10;99.90
25248;DHT22;13191;47.472;11.214;2024-03-23T09:59:41;10.90;99.90
25248;DHT22;13191;47.472;11.214;2024-03-23T10:02:07;10.90;99.90
25248;DHT22;13191;47.472;11.214;2024-03-23T10:04:40;10.70;99.90
25248;DHT22;13191;47.472;11.214;2024-03-23T10:07:13;10.70;99.90
25248;DHT22;13191;47.472;11.214;2024-03-23T10:09:39;10.40;99.90
25248;DHT22;13191;47.472;11.214;2024-03-23T10:12:16;10.50;99.90
25248;DHT22;13191;47.472;11.214;2024-03-23T10:14:42;10.50;99.90
25248;DHT22;13191;47.472;11.214;2024-03-23T10:17:18;10.50;99.90
25248;DHT22;13191;47.472;11.214;2024-03-23T10:19:48;10.50;99.90
25248;DHT22;13191;47.472;11.214;2024-03-23T10:22:19;10.20;99.90
25248;DHT22;13191;47.472;11.214;2024-03-23T10:24:45;10.00;99.90
25248;DHT22;13191;47.472;11.214;2024-03-23T10:27:18;9.70;99.90
25248;DHT22;13191;47.472;11.214;2024-03-23T10:29:48;9.40;99.90
25248;DHT22;13191;47.472;11.214;2024-03-23T10:32:15;9.40;99.90
25248;DHT22;13191;47.472;11.214;2024-03-23T10:34:41;9.10;99.90
25248;DHT22;13191;47.472;11.214;2024-03-23T10:37:08;9.00;99.90
25248;DHT22;13191;47.472;11.214;2024-03-23T10:39:36;8.80;99.90
25248;DHT22;13191;47.472;11.214;2024-03-23T10:42:03;8.80;99.90
25248;DHT22;13191;47.472;11.214;2024-03-23T10:44:29;8.60;99.90
25248;DHT22;13191;47.472;11.214;2024-03-23T10:46:56;8.70;99.90
25248;DHT22;13191;47.472;11.214;2024-03-23T10:49:32;8.60;99.90
25248;DHT22;13191;47.472;11.214;2024-03-23T10:52:03;8.50;99.90
25248;DHT22;13191;47.472;11.214;2024-03-23T10:54:30;8.30;99.90
25248;DHT22;13191;47.472;11.214;2024-03-23T10:57:13;8.30;99.90
25248;DHT22;13191;47.472;11.214;2024-03-23T10:59:40;7.90;99.90
25248;DHT22;13191;47.472;11.214;2024-03-23T11:02:06;7.90;99.90
25248;DHT22;13191;47.472;11.214;2024-03-23T11:04:37;7.40;99.90
25248;DHT22;13191;47.472;11.214;2024-03-23T11:09:53;7.50;99.90
25248;DHT22;13191;47.472;11.214;2024-03-23T11:15:04;7.10;99.90
25248;DHT22;13191;47.472;11.214;2024-03-23T11:17:30;7.20;99.90
25248;DHT22;13191;47.472;11.214;2024-03-23T11:20:00;7.20;99.90
25248;DHT22;13191;47.472;11.214;2024-03-23T11:25:26;7.50;99.90
25248;DHT22;13191;47.472;11.214;2024-03-23T11:27:56;7.60;99.90
25248;DHT22;13191;47.472;11.214;2024-03-23T11:30:27;7.80;99.90
25248;DHT22;13191;47.472;11.214;2024-03-23T11:32:55;7.90;99.90
25248;DHT22;13191;47.472;11.214;2024-03-23T11:35:32;7.90;99.90
25248;DHT22;13191;47.472;11.214;2024-03-23T11:38:12;8.00;99.90
25248;DHT22;13191;47.472;11.214;2024-03-23T11:40:40;8.10;99.90
25248;DHT22;13191;47.472;11.214;2024-03-23T11:43:07;8.10;99.90
25248;DHT22;13191;47.472;11.214;2024-03-23T11:45:35;8.20;99.90
25248;DHT22;13191;47.472;11.214;2024-03-23T11:48:02;8.10;99.90
25248;DHT22;13191;47.472;11.214;2024-03-23T11:50:28;8.10;99.90
25248;DHT22;13191;47.472;11.214;2024-03-23T11:53:09;8.20;99.90
25248;DHT22;13191;47.472;11.214;2024-03-23T11:55:52;8.20;99.90
25248;DHT22;13191;47.472;11.214;2024-03-23T11:58:19;8.20;99.90
25248;DHT22;13191;47.472;11.214;2024-03-23T12:00:58;8.20;99.90
25248;DHT22;13191;47.472;11.214;2024-03-23T12:03:25;8.20;99.90
25248;DHT22;13191;47.472;11.214;2024-03-23T12:05:52;8.20;99.90
25248;DHT22;13191;47.472;11.214;2024-03-23T12:10:52;8.30;99.90
25248;DHT22;13191;47.472;11.214;2024-03-23T12:13:20;8.30;99.90
25248;DHT22;13191;47.472;11.214;2024-03-23T12:15:47;8.30;99.90
25248;DHT22;13191;47.472;11.214;2024-03-23T12:18:13;8.10;99.90
25248;DHT22;13191;47.472;11.214;2024-03-23T12:20:39;7.90;99.90
25248;DHT22;13191;47.472;11.214;2024-03-23T12:23:06;7.50;99.90
25248;DHT22;13191;47.472;11.214;2024-03-23T12:25:32;7.30;99.90
25248;DHT22;13191;47.472;11.214;2024-03-23T12:27:59;7.00;99.90
25248;DHT22;13191;47.472;11.214;2024-03-23T12:30:25;7.20;99.90
25248;DHT22;13191;47.472;11.214;2024-03-23T12:32:50;6.90;99.90
25248;DHT22;13191;47.472;11.214;2024-03-23T12:35:16;7.20;99.90
25248;DHT22;13191;47.472;11.214;2024-03-23T12:37:41;7.20;99.90
25248;DHT22;13191;47.472;11.214;2024-03-23T12:40:07;7.10;99.90
25248;DHT22;13191;47.472;11.214;2024-03-23T12:42:33;7.20;99.90
25248;DHT22;13191;47.472;11.214;2024-03-23T12:44:58;7.20;99.90
25248;DHT22;13191;47.472;11.214;2024-03-23T12:47:24;7.00;99.90
25248;DHT22;13191;47.472;11.214;2024-03-23T12:49:51;6.80;99.90
25248;DHT22;13191;47.472;11.214;2024-03-23T12:52:17;6.70;99.90
25248;DHT22;13191;47.472;11.214;2024-03-23T12:54:43;6.70;99.90
25248;DHT22;13191;47.472;11.214;2024-03-23T12:57:08;6.80;99.90
25248;DHT22;13191;47.472;11.214;2024-03-23T12:59:34;6.70;99.90
25248;DHT22;13191;47.472;11.214;2024-03-23T13:02:01;6.80;99.90
25248;DHT22;13191;47.472;11.214;2024-03-23T13:04:26;6.60;99.90
25248;DHT22;13191;47.472;11.214;2024-03-23T13:06:52;6.60;99.90
25248;DHT22;13191;47.472;11.214;2024-03-23T13:09:17;6.50;99.90
25248;DHT22;13191;47.472;11.214;2024-03-23T13:11:43;6.60;99.90
25248;DHT22;13191;47.472;11.214;2024-03-23T13:14:09;6.70;99.90
25248;DHT22;13191;47.472;11.214;2024-03-23T13:16:34;6.80;99.90
25248;DHT22;13191;47.472;11.214;2024-03-23T13:19:00;6.90;99.90
25248;DHT22;13191;47.472;11.214;2024-03-23T13:21:26;6.90;99.90
25248;DHT22;13191;47.472;11.214;2024-03-23T13:23:52;6.80;99.90
25248;DHT22;13191;47.472;11.214;2024-03-23T13:26:17;6.90;99.90
25248;DHT22;13191;47.472;11.214;2024-03-23T13:28:43;6.60;99.90
25248;DHT22;13191;47.472;11.214;2024-03-23T13:31:10;6.80;99.90
25248;DHT22;13191;47.472;11.214;2024-03-23T13:33:35;6.90;99.90
25248;DHT22;13191;47.472;11.214;2024-03-23T13:36:01;7.00;99.90
25248;DHT22;13191;47.472;11.214;2024-03-23T13:38:27;7.10;99.90
25248;DHT22;13191;47.472;11.214;2024-03-23T13:40:55;7.10;99.90
25248;DHT22;13191;47.472;11.214;2024-03-23T13:43:21;7.10;99.90
25248;DHT22;13191;47.472;11.214;2024-03-23T13:45:49;6.90;99.90
25248;DHT22;13191;47.472;11.214;2024-03-23T13:48:20;7.00;99.90
25248;DHT22;13191;47.472;11.214;2024-03-23T13:50:46;7.10;99.90
25248;DHT22;13191;47.472;11.214;2024-03-23T13:53:14;6.80;99.90
25248;DHT22;13191;47.472;11.214;2024-03-23T13:55:46;6.60;99.90
25248;DHT22;13191;47.472;11.214;2024-03-23T13:58:14;6.50;99.90
25248;DHT22;13191;47.472;11.214;2024-03-23T14:00:39;6.70;99.90
25248;DHT22;13191;47.472;11.214;2024-03-23T14:03:05;6.90;99.90
25248;DHT22;13191;47.472;11.214;2024-03-23T14:05:31;6.60;99.90
25248;DHT22;13191;47.472;11.214;2024-03-23T14:07:56;6.60;99.90
25248;DHT22;13191;47.472;11.214;2024-03-23T14:10:22;6.60;99.90
25248;DHT22;13191;47.472;11.214;2024-03-23T14:12:47;6.30;99.90
25248;DHT22;13191;47.472;11.214;2024-03-23T14:15:13;6.30;99.90
25248;DHT22;13191;47.472;11.214;2024-03-23T14:17:41;6.40;99.90
25248;DHT22;13191;47.472;11.214;2024-03-23T14:20:10;6.30;99.90
25248;DHT22;13191;47.472;11.214;2024-03-23T14:22:37;6.40;99.90
25248;DHT22;13191;47.472;11.214;2024-03-23T14:25:02;6.10;99.90
25248;DHT22;13191;47.472;11.214;2024-03-23T14:27:28;6.10;99.90
25248;DHT22;13191;47.472;11.214;2024-03-23T14:29:54;6.00;99.90
25248;DHT22;13191;47.472;11.214;2024-03-23T14:32:21;5.60;99.90
25248;DHT22;13191;47.472;11.214;2024-03-23T14:34:47;5.70;99.90
25248;DHT22;13191;47.472;11.214;2024-03-23T14:37:12;5.70;99.90
25248;DHT22;13191;47.472;11.214;2024-03-23T14:39:38;5.60;99.90
25248;DHT22;13191;47.472;11.214;2024-03-23T14:42:07;5.60;99.90
25248;DHT22;13191;47.472;11.214;2024-03-23T14:44:34;5.60;99.90
25248;DHT22;13191;47.472;11.214;2024-03-23T14:46:59;5.70;99.90
25248;DHT22;13191;47.472;11.214;2024-03-23T14:49:25;5.80;99.90
25248;DHT22;13191;47.472;11.214;2024-03-23T14:51:51;5.80;99.90
25248;DHT22;13191;47.472;11.214;2024-03-23T14:54:17;5.80;99.90
25248;DHT22;13191;47.472;11.214;2024-03-23T14:56:42;5.90;99.90
25248;DHT22;13191;47.472;11.214;2024-03-23T14:59:08;6.00;99.90
25248;DHT22;13191;47.472;11.214;2024-03-23T15:01:34;6.10;99.90
25248;DHT22;13191;47.472;11.214;2024-03-23T15:04:00;6.20;99.90
25248;DHT22;13191;47.472;11.214;2024-03-23T15:06:25;6.30;99.90
25248;DHT22;13191;47.472;11.214;2024-03-23T15:08:51;6.40;99.90
25248;DHT22;13191;47.472;11.214;2024-03-23T15:11:16;6.60;99.90
25248;DHT22;13191;47.472;11.214;2024-03-23T15:13:45;6.70;99.90
25248;DHT22;13191;47.472;11.214;2024-03-23T15:16:10;6.70;99.90
25248;DHT22;13191;47.472;11.214;2024-03-23T15:18:36;6.80;99.90
25248;DHT22;13191;47.472;11.214;2024-03-23T15:21:03;6.90;99.90
25248;DHT22;13191;47.472;11.214;2024-03-23T15:23:33;7.00;99.90
25248;DHT22;13191;47.472;11.214;2024-03-23T15:25:59;7.00;99.90
25248;DHT22;13191;47.472;11.214;2024-03-23T15:28:29;7.00;99.90
25248;DHT22;13191;47.472;11.214;2024-03-23T15:31:27;7.10;99.90
25248;DHT22;13191;47.472;11.214;2024-03-23T15:33:54;7.00;99.90
25248;DHT22;13191;47.472;11.214;2024-03-23T15:36:19;7.10;99.90
25248;DHT22;13191;47.472;11.214;2024-03-23T15:38:45;7.20;99.90
25248;DHT22;13191;47.472;11.214;2024-03-23T15:41:10;7.20;99.90
25248;DHT22;13191;47.472;11.214;2024-03-23T15:43:36;7.30;99.90
25248;DHT22;13191;47.472;11.214;2024-03-23T15:46:04;6.90;99.90
25248;DHT22;13191;47.472;11.214;2024-03-23T15:48:31;6.90;99.90
25248;DHT22;13191;47.472;11.214;2024-03-23T15:50:59;6.90;99.90
25248;DHT22;13191;47.472;11.214;2024-03-23T15:53:25;6.90;99.90
25248;DHT22;13191;47.472;11.214;2024-03-23T15:55:55;6.80;99.90
25248;DHT22;13191;47.472;11.214;2024-03-23T15:58:21;6.80;99.90
25248;DHT22;13191;47.472;11.214;2024-03-23T16:00:55;6.70;99.90
25248;DHT22;13191;47.472;11.214;2024-03-23T16:03:21;6.70;99.90
25248;DHT22;13191;47.472;11.214;2024-03-23T16:05:54;6.60;99.90
25248;DHT22;13191;47.472;11.214;2024-03-23T16:08:21;6.70;99.90
25248;DHT22;13191;47.472;11.214;2024-03-23T16:10:46;6.40;99.90
25248;DHT22;13191;47.472;11.214;2024-03-23T16:13:12;6.50;99.90
25248;DHT22;13191;47.472;11.214;2024-03-23T16:15:37;6.30;99.90
25248;DHT22;13191;47.472;11.214;2024-03-23T16:18:03;5.90;99.90
25248;DHT22;13191;47.472;11.214;2024-03-23T16:20:29;5.80;99.90
25248;DHT22;13191;47.472;11.214;2024-03-23T16:22:55;5.90;99.90
25248;DHT22;13191;47.472;11.214;2024-03-23T16:25:21;5.80;99.90
25248;DHT22;13191;47.472;11.214;2024-03-23T16:27:47;6.00;99.90
25248;DHT22;13191;47.472;11.214;2024-03-23T16:30:13;6.20;99.90
25248;DHT22;13191;47.472;11.214;2024-03-23T16:32:38;6.20;99.90
25248;DHT22;13191;47.472;11.214;2024-03-23T16:35:05;6.30;99.90